Jupiter, FL (33458)

1:52 PM EST on February 10, 2016 (GMT -0500)
JUPITER RIVER | | Change Station
CLOSE
Current Station
Personal Weather Station
Location: Jupiter, FL
Elevation: 14 ft
Nearby Weather Stations

Elev 14 ft 26.93 °N, 80.11 °W | Updated 4 seconds ago

Partly Cloudy
Partly Cloudy
63.2 °F
Feels Like 63.2 °F
N
3.0
Wind Variable Wind from West
Gusts 7.0 mph

Today
High -- | Low -- °F
--% Chance of Precip.
Yesterday
High -- | Low -- °F
Precip. -- in
Pressure 30.23 in
Visibility 10.0 miles
Clouds Few 5500 ft
Mostly Cloudy 25000 ft
Dew Point 38 °F
Humidity 40%
Rainfall 0.00 in
Snow Depth Not available.
7:00 AM 6:08 PM
Waxing Crescent, 6% visible
METAR KPBI 101753Z VRB03KT 10SM FEW055 BKN250 16/M01 A3023 RMK AO2 SLP236 T01561006 10161 20106 58011
Pressure 30.23 in
Visibility 10.0 miles
Clouds Few 5500 ft
Mostly Cloudy 25000 ft
Dew Point 38 °F
Humidity 40%
Rainfall 0.00 in
Snow Depth Not available.
7:00 AM 6:08 PM
Waxing Crescent, 6% visible
METAR KPBI 101753Z VRB03KT 10SM FEW055 BKN250 16/M01 A3023 RMK AO2 SLP236 T01561006 10161 20106 58011

10-Day Weather Forecast

Almanac

Astronomy

Feb. 10, 2016 Rise Set
Actual Time
Civil Twilight
Nautical Twilight
Astronomical Twilight
Moon
Length of Visible Light
Length of Day
Tomorrow will be .
, % of the Moon is Illuminated

Today's Extremes

State Highs State Lows

Community

WunderPhotos

Upload Photos

1,891,915 photos uploaded!

WunderBlog® & News

Nearby

Air Quality

  Air Quality AQ Index Pollutant
Not available.

Snow Depth

Station Depth Elevation

Earthquake Activity

City Distance Mag. Time & Date
Minimum magnitude displayed is 2.5.

Coastal Water Temperatures

Place Temperature

Stations

Nearby Weather Stations

Station Location Temp. Windchill Dew Point Humidity Wind Precip. Elev Updated Type
                   

Watches & Warnings

There are currently no watches in effect.